sensor_id;sensor_type;location;lat;lon;timestamp;pressure;altitude;pressure_sealevel;temperature
14851;BMP180;7517;48.400;11.770;2023-01-30T00:01:59;96888.00;;;4.00
14851;BMP180;7517;48.400;11.770;2023-01-30T00:04:26;96888.00;;;4.00
14851;BMP180;7517;48.400;11.770;2023-01-30T00:06:53;96880.00;;;4.00
14851;BMP180;7517;48.400;11.770;2023-01-30T00:09:21;96877.00;;;4.00
14851;BMP180;7517;48.400;11.770;2023-01-30T00:11:48;96883.00;;;4.00
14851;BMP180;7517;48.400;11.770;2023-01-30T00:14:15;96874.00;;;4.00
14851;BMP180;7517;48.400;11.770;2023-01-30T00:16:42;96864.00;;;3.90
14851;BMP180;7517;48.400;11.770;2023-01-30T00:19:11;96864.00;;;3.90
14851;BMP180;7517;48.400;11.770;2023-01-30T00:21:40;96873.00;;;3.90
14851;BMP180;7517;48.400;11.770;2023-01-30T00:24:07;96861.00;;;3.90
14851;BMP180;7517;48.400;11.770;2023-01-30T00:26:35;96853.00;;;3.90
14851;BMP180;7517;48.400;11.770;2023-01-30T00:29:02;96847.00;;;3.90
14851;BMP180;7517;48.400;11.770;2023-01-30T00:31:29;96844.00;;;3.90
14851;BMP180;7517;48.400;11.770;2023-01-30T00:33:57;96835.00;;;3.90
14851;BMP180;7517;48.400;11.770;2023-01-30T00:36:25;96831.00;;;3.90
14851;BMP180;7517;48.400;11.770;2023-01-30T00:38:55;96827.00;;;3.80
14851;BMP180;7517;48.400;11.770;2023-01-30T00:41:23;96820.00;;;3.80
14851;BMP180;7517;48.400;11.770;2023-01-30T00:44:10;96822.00;;;3.80
14851;BMP180;7517;48.400;11.770;2023-01-30T00:46:54;96808.00;;;3.80
14851;BMP180;7517;48.400;11.770;2023-01-30T00:49:31;96820.00;;;3.70
14851;BMP180;7517;48.400;11.770;2023-01-30T00:52:00;96807.00;;;3.70
14851;BMP180;7517;48.400;11.770;2023-01-30T00:54:27;96811.00;;;3.70
14851;BMP180;7517;48.400;11.770;2023-01-30T00:56:54;96812.00;;;3.70
14851;BMP180;7517;48.400;11.770;2023-01-30T00:59:22;96819.00;;;3.70
14851;BMP180;7517;48.400;11.770;2023-01-30T01:01:49;96819.00;;;3.70
14851;BMP180;7517;48.400;11.770;2023-01-30T01:04:16;96813.00;;;3.70
14851;BMP180;7517;48.400;11.770;2023-01-30T01:06:43;96805.00;;;3.70
14851;BMP180;7517;48.400;11.770;2023-01-30T01:09:12;96801.00;;;3.70
14851;BMP180;7517;48.400;11.770;2023-01-30T01:11:39;96800.00;;;3.70
14851;BMP180;7517;48.400;11.770;2023-01-30T01:14:06;96800.00;;;3.70
14851;BMP180;7517;48.400;11.770;2023-01-30T01:16:35;96799.00;;;3.60
14851;BMP180;7517;48.400;11.770;2023-01-30T01:19:02;96789.00;;;3.60
14851;BMP180;7517;48.400;11.770;2023-01-30T01:21:29;96805.00;;;3.60
14851;BMP180;7517;48.400;11.770;2023-01-30T01:23:59;96794.00;;;3.60
14851;BMP180;7517;48.400;11.770;2023-01-30T01:26:28;96795.00;;;3.50
14851;BMP180;7517;48.400;11.770;2023-01-30T01:28:56;96792.00;;;3.50
14851;BMP180;7517;48.400;11.770;2023-01-30T01:31:24;96799.00;;;3.50
14851;BMP180;7517;48.400;11.770;2023-01-30T01:33:51;96783.00;;;3.50
14851;BMP180;7517;48.400;11.770;2023-01-30T01:36:19;96774.00;;;3.50
14851;BMP180;7517;48.400;11.770;2023-01-30T01:38:46;96771.00;;;3.40
14851;BMP180;7517;48.400;11.770;2023-01-30T01:41:16;96750.00;;;3.40
14851;BMP180;7517;48.400;11.770;2023-01-30T01:46:56;96756.00;;;3.40
14851;BMP180;7517;48.400;11.770;2023-01-30T01:49:28;96760.00;;;3.40
14851;BMP180;7517;48.400;11.770;2023-01-30T01:52:06;96766.00;;;3.40
14851;BMP180;7517;48.400;11.770;2023-01-30T01:54:43;96780.00;;;3.40
14851;BMP180;7517;48.400;11.770;2023-01-30T01:57:19;96771.00;;;3.40
14851;BMP180;7517;48.400;11.770;2023-01-30T01:59:57;96753.00;;;3.40
14851;BMP180;7517;48.400;11.770;2023-01-30T02:02:34;96758.00;;;3.40
14851;BMP180;7517;48.400;11.770;2023-01-30T02:05:04;96768.00;;;3.40
14851;BMP180;7517;48.400;11.770;2023-01-30T02:07:54;96769.00;;;3.40
14851;BMP180;7517;48.400;11.770;2023-01-30T02:10:44;96769.00;;;3.30
14851;BMP180;7517;48.400;11.770;2023-01-30T02:13:27;96764.00;;;3.30
14851;BMP180;7517;48.400;11.770;2023-01-30T02:16:15;96776.00;;;3.30
14851;BMP180;7517;48.400;11.770;2023-01-30T02:18:57;96777.00;;;3.30
14851;BMP180;7517;48.400;11.770;2023-01-30T02:25:49;96767.00;;;3.20
14851;BMP180;7517;48.400;11.770;2023-01-30T02:29:05;96765.00;;;3.20
14851;BMP180;7517;48.400;11.770;2023-01-30T02:31:46;96778.00;;;3.20
14851;BMP180;7517;48.400;11.770;2023-01-30T02:34:38;96776.00;;;3.20
14851;BMP180;7517;48.400;11.770;2023-01-30T02:37:25;96765.00;;;3.20
14851;BMP180;7517;48.400;11.770;2023-01-30T02:40:17;96762.00;;;3.10
14851;BMP180;7517;48.400;11.770;2023-01-30T02:42:59;96764.00;;;3.10
14851;BMP180;7517;48.400;11.770;2023-01-30T02:45:40;96771.00;;;3.10
14851;BMP180;7517;48.400;11.770;2023-01-30T02:48:28;96772.00;;;3.10
14851;BMP180;7517;48.400;11.770;2023-01-30T02:51:04;96773.00;;;3.10
14851;BMP180;7517;48.400;11.770;2023-01-30T02:53:37;96762.00;;;3.10
14851;BMP180;7517;48.400;11.770;2023-01-30T02:56:08;96773.00;;;3.10
14851;BMP180;7517;48.400;11.770;2023-01-30T02:58:43;96776.00;;;3.00
14851;BMP180;7517;48.400;11.770;2023-01-30T03:01:46;96772.00;;;3.00
14851;BMP180;7517;48.400;11.770;2023-01-30T03:04:33;96773.00;;;3.00
14851;BMP180;7517;48.400;11.770;2023-01-30T03:07:26;96771.00;;;3.00
14851;BMP180;7517;48.400;11.770;2023-01-30T03:10:07;96769.00;;;3.00
14851;BMP180;7517;48.400;11.770;2023-01-30T03:12:46;96747.00;;;3.00
14851;BMP180;7517;48.400;11.770;2023-01-30T03:15:24;96733.00;;;3.00
14851;BMP180;7517;48.400;11.770;2023-01-30T03:17:55;96736.00;;;2.90
14851;BMP180;7517;48.400;11.770;2023-01-30T03:20:25;96739.00;;;2.90
14851;BMP180;7517;48.400;11.770;2023-01-30T03:22:53;96749.00;;;2.90
14851;BMP180;7517;48.400;11.770;2023-01-30T03:25:24;96740.00;;;2.90
14851;BMP180;7517;48.400;11.770;2023-01-30T03:27:57;96746.00;;;2.90
14851;BMP180;7517;48.400;11.770;2023-01-30T03:30:26;96741.00;;;2.90
14851;BMP180;7517;48.400;11.770;2023-01-30T03:32:54;96745.00;;;2.90
14851;BMP180;7517;48.400;11.770;2023-01-30T03:35:24;96742.00;;;2.90
14851;BMP180;7517;48.400;11.770;2023-01-30T03:37:54;96743.00;;;2.90
14851;BMP180;7517;48.400;11.770;2023-01-30T03:40:23;96749.00;;;2.90
14851;BMP180;7517;48.400;11.770;2023-01-30T03:42:53;96753.00;;;2.90
14851;BMP180;7517;48.400;11.770;2023-01-30T03:45:22;96742.00;;;2.90
14851;BMP180;7517;48.400;11.770;2023-01-30T03:47:52;96723.00;;;2.90
14851;BMP180;7517;48.400;11.770;2023-01-30T03:50:26;96722.00;;;2.90
14851;BMP180;7517;48.400;11.770;2023-01-30T03:52:55;96719.00;;;2.90
14851;BMP180;7517;48.400;11.770;2023-01-30T03:55:24;96716.00;;;2.90
14851;BMP180;7517;48.400;11.770;2023-01-30T03:57:56;96706.00;;;2.90
14851;BMP180;7517;48.400;11.770;2023-01-30T04:00:24;96701.00;;;2.80
14851;BMP180;7517;48.400;11.770;2023-01-30T04:02:54;96701.00;;;2.80
14851;BMP180;7517;48.400;11.770;2023-01-30T04:05:36;96711.00;;;2.80
14851;BMP180;7517;48.400;11.770;2023-01-30T04:08:06;96740.00;;;2.80
14851;BMP180;7517;48.400;11.770;2023-01-30T04:10:46;96744.00;;;2.80
14851;BMP180;7517;48.400;11.770;2023-01-30T04:13:23;96740.00;;;2.80
14851;BMP180;7517;48.400;11.770;2023-01-30T04:16:14;96730.00;;;2.80
14851;BMP180;7517;48.400;11.770;2023-01-30T04:18:43;96719.00;;;2.80
14851;BMP180;7517;48.400;11.770;2023-01-30T04:21:14;96708.00;;;2.80
14851;BMP180;7517;48.400;11.770;2023-01-30T04:23:43;96722.00;;;2.90
14851;BMP180;7517;48.400;11.770;2023-01-30T04:26:19;96718.00;;;2.90
14851;BMP180;7517;48.400;11.770;2023-01-30T04:28:51;96715.00;;;2.90
14851;BMP180;7517;48.400;11.770;2023-01-30T04:31:22;96705.00;;;2.90
14851;BMP180;7517;48.400;11.770;2023-01-30T04:33:53;96685.00;;;2.90
14851;BMP180;7517;48.400;11.770;2023-01-30T04:36:25;96698.00;;;2.90
14851;BMP180;7517;48.400;11.770;2023-01-30T04:38:56;96693.00;;;2.90
14851;BMP180;7517;48.400;11.770;2023-01-30T04:41:26;96679.00;;;2.90
14851;BMP180;7517;48.400;11.770;2023-01-30T04:43:58;96687.00;;;2.90
14851;BMP180;7517;48.400;11.770;2023-01-30T04:46:33;96683.00;;;2.90
14851;BMP180;7517;48.400;11.770;2023-01-30T04:49:08;96686.00;;;3.00
14851;BMP180;7517;48.400;11.770;2023-01-30T04:51:38;96682.00;;;3.00
14851;BMP180;7517;48.400;11.770;2023-01-30T04:54:07;96658.00;;;3.00
14851;BMP180;7517;48.400;11.770;2023-01-30T04:56:39;96670.00;;;3.00
14851;BMP180;7517;48.400;11.770;2023-01-30T04:59:09;96650.00;;;3.00
14851;BMP180;7517;48.400;11.770;2023-01-30T05:01:39;96653.00;;;3.00
14851;BMP180;7517;48.400;11.770;2023-01-30T05:04:09;96634.00;;;2.90
14851;BMP180;7517;48.400;11.770;2023-01-30T05:06:38;96639.00;;;3.00
14851;BMP180;7517;48.400;11.770;2023-01-30T05:09:07;96617.00;;;2.90
14851;BMP180;7517;48.400;11.770;2023-01-30T05:11:35;96627.00;;;2.90
14851;BMP180;7517;48.400;11.770;2023-01-30T05:14:03;96630.00;;;2.90
14851;BMP180;7517;48.400;11.770;2023-01-30T05:16:31;96643.00;;;2.90
14851;BMP180;7517;48.400;11.770;2023-01-30T05:18:58;96636.00;;;2.90
14851;BMP180;7517;48.400;11.770;2023-01-30T05:21:27;96641.00;;;2.90
14851;BMP180;7517;48.400;11.770;2023-01-30T05:23:56;96632.00;;;2.90
14851;BMP180;7517;48.400;11.770;2023-01-30T05:26:24;96645.00;;;2.90
14851;BMP180;7517;48.400;11.770;2023-01-30T05:28:53;96659.00;;;2.90
14851;BMP180;7517;48.400;11.770;2023-01-30T05:31:21;96635.00;;;2.90
14851;BMP180;7517;48.400;11.770;2023-01-30T05:33:49;96639.00;;;2.90
14851;BMP180;7517;48.400;11.770;2023-01-30T05:36:20;96630.00;;;2.90
14851;BMP180;7517;48.400;11.770;2023-01-30T05:38:47;96633.00;;;2.90
14851;BMP180;7517;48.400;11.770;2023-01-30T05:41:16;96640.00;;;2.90
14851;BMP180;7517;48.400;11.770;2023-01-30T05:43:49;96636.00;;;2.90
14851;BMP180;7517;48.400;11.770;2023-01-30T05:46:16;96626.00;;;2.90
14851;BMP180;7517;48.400;11.770;2023-01-30T05:48:44;96644.00;;;2.90
14851;BMP180;7517;48.400;11.770;2023-01-30T05:51:17;96627.00;;;2.90
14851;BMP180;7517;48.400;11.770;2023-01-30T05:53:44;96629.00;;;2.90
14851;BMP180;7517;48.400;11.770;2023-01-30T05:56:11;96641.00;;;2.90
14851;BMP180;7517;48.400;11.770;2023-01-30T05:58:40;96636.00;;;2.90
14851;BMP180;7517;48.400;11.770;2023-01-30T06:01:11;96627.00;;;2.90
14851;BMP180;7517;48.400;11.770;2023-01-30T06:03:38;96631.00;;;2.90
14851;BMP180;7517;48.400;11.770;2023-01-30T06:06:06;96631.00;;;3.00
14851;BMP180;7517;48.400;11.770;2023-01-30T06:08:34;96632.00;;;3.00
14851;BMP180;7517;48.400;11.770;2023-01-30T06:11:02;96631.00;;;3.00
14851;BMP180;7517;48.400;11.770;2023-01-30T06:13:29;96640.00;;;3.00
14851;BMP180;7517;48.400;11.770;2023-01-30T06:16:01;96645.00;;;3.10
14851;BMP180;7517;48.400;11.770;2023-01-30T06:18:31;96626.00;;;3.10
14851;BMP180;7517;48.400;11.770;2023-01-30T06:20:59;96633.00;;;3.20
14851;BMP180;7517;48.400;11.770;2023-01-30T06:23:26;96637.00;;;3.30
14851;BMP180;7517;48.400;11.770;2023-01-30T06:25:54;96623.00;;;3.30
14851;BMP180;7517;48.400;11.770;2023-01-30T06:28:23;96625.00;;;3.40
14851;BMP180;7517;48.400;11.770;2023-01-30T06:30:51;96626.00;;;3.40
14851;BMP180;7517;48.400;11.770;2023-01-30T06:33:20;96630.00;;;3.50
14851;BMP180;7517;48.400;11.770;2023-01-30T06:35:49;96626.00;;;3.60
14851;BMP180;7517;48.400;11.770;2023-01-30T06:38:17;96634.00;;;3.60
14851;BMP180;7517;48.400;11.770;2023-01-30T06:40:49;96633.00;;;3.70
14851;BMP180;7517;48.400;11.770;2023-01-30T06:43:17;96636.00;;;3.80
14851;BMP180;7517;48.400;11.770;2023-01-30T06:46:08;96636.00;;;3.80
14851;BMP180;7517;48.400;11.770;2023-01-30T06:48:37;96643.00;;;3.90
14851;BMP180;7517;48.400;11.770;2023-01-30T06:51:10;96634.00;;;3.90
14851;BMP180;7517;48.400;11.770;2023-01-30T06:53:37;96643.00;;;4.00
14851;BMP180;7517;48.400;11.770;2023-01-30T06:56:05;96650.00;;;4.00
14851;BMP180;7517;48.400;11.770;2023-01-30T06:58:38;96646.00;;;4.10
14851;BMP180;7517;48.400;11.770;2023-01-30T07:01:05;96643.00;;;4.10
14851;BMP180;7517;48.400;11.770;2023-01-30T07:03:32;96630.00;;;4.20
14851;BMP180;7517;48.400;11.770;2023-01-30T07:06:01;96635.00;;;4.30
14851;BMP180;7517;48.400;11.770;2023-01-30T07:08:28;96635.00;;;4.30
14851;BMP180;7517;48.400;11.770;2023-01-30T07:10:55;96630.00;;;4.40
14851;BMP180;7517;48.400;11.770;2023-01-30T07:13:23;96626.00;;;4.40
14851;BMP180;7517;48.400;11.770;2023-01-30T07:15:50;96631.00;;;4.50
14851;BMP180;7517;48.400;11.770;2023-01-30T07:18:17;96617.00;;;4.50
14851;BMP180;7517;48.400;11.770;2023-01-30T07:20:46;96609.00;;;4.50
14851;BMP180;7517;48.400;11.770;2023-01-30T07:23:15;96624.00;;;4.50
14851;BMP180;7517;48.400;11.770;2023-01-30T07:25:43;96619.00;;;4.50
14851;BMP180;7517;48.400;11.770;2023-01-30T07:28:10;96624.00;;;4.60
14851;BMP180;7517;48.400;11.770;2023-01-30T07:30:37;96617.00;;;4.60
14851;BMP180;7517;48.400;11.770;2023-01-30T07:33:05;96627.00;;;4.70
14851;BMP180;7517;48.400;11.770;2023-01-30T07:35:35;96630.00;;;4.70
14851;BMP180;7517;48.400;11.770;2023-01-30T07:38:03;96616.00;;;4.70
14851;BMP180;7517;48.400;11.770;2023-01-30T07:40:31;96624.00;;;4.80
14851;BMP180;7517;48.400;11.770;2023-01-30T07:43:02;96619.00;;;4.80
14851;BMP180;7517;48.400;11.770;2023-01-30T07:45:49;96620.00;;;4.90
14851;BMP180;7517;48.400;11.770;2023-01-30T07:48:18;96609.00;;;4.90
14851;BMP180;7517;48.400;11.770;2023-01-30T07:50:46;96595.00;;;4.90
14851;BMP180;7517;48.400;11.770;2023-01-30T07:53:15;96595.00;;;5.00
14851;BMP180;7517;48.400;11.770;2023-01-30T07:55:45;96609.00;;;5.00
14851;BMP180;7517;48.400;11.770;2023-01-30T07:58:13;96600.00;;;5.10
14851;BMP180;7517;48.400;11.770;2023-01-30T08:00:41;96594.00;;;5.10
14851;BMP180;7517;48.400;11.770;2023-01-30T08:03:11;96597.00;;;5.20
14851;BMP180;7517;48.400;11.770;2023-01-30T08:05:39;96604.00;;;5.30
14851;BMP180;7517;48.400;11.770;2023-01-30T08:08:06;96598.00;;;5.30
14851;BMP180;7517;48.400;11.770;2023-01-30T08:10:33;96596.00;;;5.30
14851;BMP180;7517;48.400;11.770;2023-01-30T08:13:02;96587.00;;;5.40
14851;BMP180;7517;48.400;11.770;2023-01-30T08:15:32;96587.00;;;5.40
14851;BMP180;7517;48.400;11.770;2023-01-30T08:17:59;96576.00;;;5.50
14851;BMP180;7517;48.400;11.770;2023-01-30T08:20:27;96576.00;;;5.50
14851;BMP180;7517;48.400;11.770;2023-01-30T08:22:54;96570.00;;;5.50
14851;BMP180;7517;48.400;11.770;2023-01-30T08:25:22;96569.00;;;5.60
14851;BMP180;7517;48.400;11.770;2023-01-30T08:27:50;96572.00;;;5.70
14851;BMP180;7517;48.400;11.770;2023-01-30T08:30:21;96568.00;;;5.80
14851;BMP180;7517;48.400;11.770;2023-01-30T08:32:48;96556.00;;;5.80
14851;BMP180;7517;48.400;11.770;2023-01-30T08:35:16;96566.00;;;5.90
14851;BMP180;7517;48.400;11.770;2023-01-30T08:37:43;96573.00;;;5.90
14851;BMP180;7517;48.400;11.770;2023-01-30T08:40:12;96573.00;;;5.90
14851;BMP180;7517;48.400;11.770;2023-01-30T08:42:39;96567.00;;;6.00
14851;BMP180;7517;48.400;11.770;2023-01-30T08:45:07;96583.00;;;6.00
14851;BMP180;7517;48.400;11.770;2023-01-30T08:47:36;96577.00;;;6.10
14851;BMP180;7517;48.400;11.770;2023-01-30T08:50:07;96572.00;;;6.20
14851;BMP180;7517;48.400;11.770;2023-01-30T08:52:35;96566.00;;;6.20
14851;BMP180;7517;48.400;11.770;2023-01-30T08:55:03;96558.00;;;6.30
14851;BMP180;7517;48.400;11.770;2023-01-30T08:57:30;96571.00;;;6.30
14851;BMP180;7517;48.400;11.770;2023-01-30T08:59:58;96566.00;;;6.50
14851;BMP180;7517;48.400;11.770;2023-01-30T09:02:25;96563.00;;;6.60
14851;BMP180;7517;48.400;11.770;2023-01-30T09:04:54;96558.00;;;6.70
14851;BMP180;7517;48.400;11.770;2023-01-30T09:07:21;96558.00;;;6.90
14851;BMP180;7517;48.400;11.770;2023-01-30T09:09:53;96550.00;;;7.00
14851;BMP180;7517;48.400;11.770;2023-01-30T09:12:20;96561.00;;;7.10
14851;BMP180;7517;48.400;11.770;2023-01-30T09:14:48;96555.00;;;7.30
14851;BMP180;7517;48.400;11.770;2023-01-30T09:17:17;96567.00;;;7.40
14851;BMP180;7517;48.400;11.770;2023-01-30T09:19:44;96555.00;;;7.60
14851;BMP180;7517;48.400;11.770;2023-01-30T09:22:13;96563.00;;;7.60
14851;BMP180;7517;48.400;11.770;2023-01-30T09:24:40;96574.00;;;7.70
14851;BMP180;7517;48.400;11.770;2023-01-30T09:30:11;96569.00;;;7.80
14851;BMP180;7517;48.400;11.770;2023-01-30T09:32:38;96552.00;;;7.80
14851;BMP180;7517;48.400;11.770;2023-01-30T09:35:06;96540.00;;;7.80
14851;BMP180;7517;48.400;11.770;2023-01-30T09:37:35;96549.00;;;7.90
14851;BMP180;7517;48.400;11.770;2023-01-30T09:40:03;96548.00;;;7.90
14851;BMP180;7517;48.400;11.770;2023-01-30T09:43:22;96545.00;;;7.90
14851;BMP180;7517;48.400;11.770;2023-01-30T09:46:05;96537.00;;;8.00
14851;BMP180;7517;48.400;11.770;2023-01-30T09:48:45;96535.00;;;8.00
14851;BMP180;7517;48.400;11.770;2023-01-30T09:51:40;96526.00;;;8.00
14851;BMP180;7517;48.400;11.770;2023-01-30T09:54:20;96513.00;;;8.00
14851;BMP180;7517;48.400;11.770;2023-01-30T09:57:08;96504.00;;;8.00
14851;BMP180;7517;48.400;11.770;2023-01-30T09:59:47;96517.00;;;8.10
14851;BMP180;7517;48.400;11.770;2023-01-30T10:02:48;96539.00;;;8.20
14851;BMP180;7517;48.400;11.770;2023-01-30T10:05:16;96540.00;;;8.20
14851;BMP180;7517;48.400;11.770;2023-01-30T10:08:06;96528.00;;;8.30
14851;BMP180;7517;48.400;11.770;2023-01-30T10:10:47;96508.00;;;8.30
14851;BMP180;7517;48.400;11.770;2023-01-30T10:13:38;96489.00;;;8.50
14851;BMP180;7517;48.400;11.770;2023-01-30T10:16:29;96490.00;;;8.70
14851;BMP180;7517;48.400;11.770;2023-01-30T10:19:35;96479.00;;;8.90
14851;BMP180;7517;48.400;11.770;2023-01-30T10:22:26;96467.00;;;9.00
14851;BMP180;7517;48.400;11.770;2023-01-30T10:25:12;96470.00;;;9.10
14851;BMP180;7517;48.400;11.770;2023-01-30T10:27:53;96472.00;;;9.30
14851;BMP180;7517;48.400;11.770;2023-01-30T10:30:22;96487.00;;;9.40
14851;BMP180;7517;48.400;11.770;2023-01-30T10:32:56;96472.00;;;9.50
14851;BMP180;7517;48.400;11.770;2023-01-30T10:35:31;96467.00;;;9.50
14851;BMP180;7517;48.400;11.770;2023-01-30T10:38:11;96459.00;;;9.50
14851;BMP180;7517;48.400;11.770;2023-01-30T10:40:46;96455.00;;;9.50
14851;BMP180;7517;48.400;11.770;2023-01-30T10:43:23;96456.00;;;9.50
14851;BMP180;7517;48.400;11.770;2023-01-30T10:46:00;96458.00;;;9.50
14851;BMP180;7517;48.400;11.770;2023-01-30T10:48:50;96450.00;;;9.60
14851;BMP180;7517;48.400;11.770;2023-01-30T10:51:30;96460.00;;;9.80
14851;BMP180;7517;48.400;11.770;2023-01-30T10:54:08;96449.00;;;9.90
14851;BMP180;7517;48.400;11.770;2023-01-30T10:56:46;96447.00;;;10.00
14851;BMP180;7517;48.400;11.770;2023-01-30T10:59:40;96444.00;;;10.00
14851;BMP180;7517;48.400;11.770;2023-01-30T11:02:23;96437.00;;;9.90
14851;BMP180;7517;48.400;11.770;2023-01-30T11:04:57;96422.00;;;9.90
14851;BMP180;7517;48.400;11.770;2023-01-30T11:07:28;96426.00;;;9.80
14851;BMP180;7517;48.400;11.770;2023-01-30T11:10:00;96417.00;;;9.80
14851;BMP180;7517;48.400;11.770;2023-01-30T11:12:27;96417.00;;;9.80
14851;BMP180;7517;48.400;11.770;2023-01-30T11:14:59;96415.00;;;9.80
14851;BMP180;7517;48.400;11.770;2023-01-30T11:17:34;96408.00;;;9.80
14851;BMP180;7517;48.400;11.770;2023-01-30T11:20:13;96407.00;;;9.80
14851;BMP180;7517;48.400;11.770;2023-01-30T11:22:49;96414.00;;;9.80
14851;BMP180;7517;48.400;11.770;2023-01-30T11:25:19;96403.00;;;9.80
14851;BMP180;7517;48.400;11.770;2023-01-30T11:27:53;96409.00;;;9.70
14851;BMP180;7517;48.400;11.770;2023-01-30T11:30:28;96394.00;;;9.70
14851;BMP180;7517;48.400;11.770;2023-01-30T11:33:13;96404.00;;;9.70
14851;BMP180;7517;48.400;11.770;2023-01-30T11:35:52;96394.00;;;9.70
14851;BMP180;7517;48.400;11.770;2023-01-30T11:38:24;96382.00;;;9.70
14851;BMP180;7517;48.400;11.770;2023-01-30T11:41:09;96385.00;;;9.70
14851;BMP180;7517;48.400;11.770;2023-01-30T11:43:39;96371.00;;;9.70
14851;BMP180;7517;48.400;11.770;2023-01-30T11:46:12;96374.00;;;9.60
14851;BMP180;7517;48.400;11.770;2023-01-30T11:48:49;96352.00;;;9.60
14851;BMP180;7517;48.400;11.770;2023-01-30T11:51:19;96358.00;;;9.50
14851;BMP180;7517;48.400;11.770;2023-01-30T11:53:54;96344.00;;;9.50
14851;BMP180;7517;48.400;11.770;2023-01-30T11:56:29;96353.00;;;9.50
14851;BMP180;7517;48.400;11.770;2023-01-30T11:59:02;96362.00;;;9.50
14851;BMP180;7517;48.400;11.770;2023-01-30T12:01:33;96336.00;;;9.40
14851;BMP180;7517;48.400;11.770;2023-01-30T12:04:20;96336.00;;;9.40
14851;BMP180;7517;48.400;11.770;2023-01-30T12:07:20;96328.00;;;9.50
14851;BMP180;7517;48.400;11.770;2023-01-30T12:09:49;96357.00;;;9.50
14851;BMP180;7517;48.400;11.770;2023-01-30T12:12:28;96336.00;;;9.50
14851;BMP180;7517;48.400;11.770;2023-01-30T12:15:12;96340.00;;;9.50
14851;BMP180;7517;48.400;11.770;2023-01-30T12:17:54;96348.00;;;9.60
14851;BMP180;7517;48.400;11.770;2023-01-30T12:20:41;96356.00;;;9.60
14851;BMP180;7517;48.400;11.770;2023-01-30T12:23:24;96334.00;;;9.60
14851;BMP180;7517;48.400;11.770;2023-01-30T12:26:04;96340.00;;;9.60
14851;BMP180;7517;48.400;11.770;2023-01-30T12:28:42;96335.00;;;9.60
14851;BMP180;7517;48.400;11.770;2023-01-30T12:31:18;96341.00;;;9.60
14851;BMP180;7517;48.400;11.770;2023-01-30T12:33:49;96341.00;;;9.60
14851;BMP180;7517;48.400;11.770;2023-01-30T12:36:32;96342.00;;;9.60
14851;BMP180;7517;48.400;11.770;2023-01-30T12:39:15;96344.00;;;9.70
14851;BMP180;7517;48.400;11.770;2023-01-30T12:42:10;96328.00;;;9.70
14851;BMP180;7517;48.400;11.770;2023-01-30T12:44:53;96339.00;;;9.70
14851;BMP180;7517;48.400;11.770;2023-01-30T12:47:57;96332.00;;;9.70
14851;BMP180;7517;48.400;11.770;2023-01-30T12:50:42;96331.00;;;9.80
14851;BMP180;7517;48.400;11.770;2023-01-30T12:53:29;96339.00;;;9.80
14851;BMP180;7517;48.400;11.770;2023-01-30T12:56:32;96325.00;;;9.80
14851;BMP180;7517;48.400;11.770;2023-01-30T12:59:11;96338.00;;;9.80
14851;BMP180;7517;48.400;11.770;2023-01-30T13:01:56;96335.00;;;9.80
14851;BMP180;7517;48.400;11.770;2023-01-30T13:04:39;96343.00;;;9.80
14851;BMP180;7517;48.400;11.770;2023-01-30T13:07:22;96355.00;;;9.70
14851;BMP180;7517;48.400;11.770;2023-01-30T13:10:07;96336.00;;;9.70
14851;BMP180;7517;48.400;11.770;2023-01-30T13:12:43;96342.00;;;9.70
14851;BMP180;7517;48.400;11.770;2023-01-30T13:15:21;96342.00;;;9.60
14851;BMP180;7517;48.400;11.770;2023-01-30T13:18:05;96339.00;;;9.60
14851;BMP180;7517;48.400;11.770;2023-01-30T13:20:54;96345.00;;;9.60
14851;BMP180;7517;48.400;11.770;2023-01-30T13:23:37;96345.00;;;9.50
14851;BMP180;7517;48.400;11.770;2023-01-30T13:26:11;96371.00;;;9.40
14851;BMP180;7517;48.400;11.770;2023-01-30T13:28:44;96348.00;;;9.30
14851;BMP180;7517;48.400;11.770;2023-01-30T13:31:17;96356.00;;;9.30
14851;BMP180;7517;48.400;11.770;2023-01-30T13:33:49;96351.00;;;9.20
14851;BMP180;7517;48.400;11.770;2023-01-30T13:36:21;96368.00;;;9.20
14851;BMP180;7517;48.400;11.770;2023-01-30T13:38:59;96357.00;;;9.10
14851;BMP180;7517;48.400;11.770;2023-01-30T13:41:35;96350.00;;;9.10
14851;BMP180;7517;48.400;11.770;2023-01-30T13:44:16;96368.00;;;9.10
14851;BMP180;7517;48.400;11.770;2023-01-30T13:46:45;96372.00;;;9.10
14851;BMP180;7517;48.400;11.770;2023-01-30T13:49:21;96375.00;;;9.10
14851;BMP180;7517;48.400;11.770;2023-01-30T13:51:56;96379.00;;;9.10
14851;BMP180;7517;48.400;11.770;2023-01-30T13:54:57;96384.00;;;9.10
14851;BMP180;7517;48.400;11.770;2023-01-30T13:57:40;96390.00;;;9.10
14851;BMP180;7517;48.400;11.770;2023-01-30T14:00:27;96392.00;;;9.10
14851;BMP180;7517;48.400;11.770;2023-01-30T14:03:21;96398.00;;;9.10
14851;BMP180;7517;48.400;11.770;2023-01-30T14:09:23;96407.00;;;9.10
14851;BMP180;7517;48.400;11.770;2023-01-30T14:11:59;96400.00;;;9.00
14851;BMP180;7517;48.400;11.770;2023-01-30T14:14:32;96403.00;;;9.00
14851;BMP180;7517;48.400;11.770;2023-01-30T14:17:13;96417.00;;;9.00
14851;BMP180;7517;48.400;11.770;2023-01-30T14:20:00;96417.00;;;9.00
14851;BMP180;7517;48.400;11.770;2023-01-30T14:22:33;96425.00;;;8.90
14851;BMP180;7517;48.400;11.770;2023-01-30T14:25:46;96447.00;;;8.90
14851;BMP180;7517;48.400;11.770;2023-01-30T14:28:48;96440.00;;;8.90
14851;BMP180;7517;48.400;11.770;2023-01-30T14:31:46;96444.00;;;8.90
14851;BMP180;7517;48.400;11.770;2023-01-30T14:34:48;96455.00;;;8.80
14851;BMP180;7517;48.400;11.770;2023-01-30T14:40:48;96469.00;;;8.80
14851;BMP180;7517;48.400;11.770;2023-01-30T14:43:50;96462.00;;;8.80
14851;BMP180;7517;48.400;11.770;2023-01-30T14:46:41;96469.00;;;8.70
14851;BMP180;7517;48.400;11.770;2023-01-30T14:49:27;96484.00;;;8.70
14851;BMP180;7517;48.400;11.770;2023-01-30T14:51:55;96479.00;;;8.70
14851;BMP180;7517;48.400;11.770;2023-01-30T14:54:38;96474.00;;;8.70
14851;BMP180;7517;48.400;11.770;2023-01-30T14:57:19;96497.00;;;8.70
14851;BMP180;7517;48.400;11.770;2023-01-30T14:59:53;96506.00;;;8.70
14851;BMP180;7517;48.400;11.770;2023-01-30T15:02:25;96503.00;;;8.60
14851;BMP180;7517;48.400;11.770;2023-01-30T15:05:04;96516.00;;;8.60
14851;BMP180;7517;48.400;11.770;2023-01-30T15:07:39;96524.00;;;8.60
14851;BMP180;7517;48.400;11.770;2023-01-30T15:10:29;96527.00;;;8.50
14851;BMP180;7517;48.400;11.770;2023-01-30T15:13:31;96539.00;;;8.40
14851;BMP180;7517;48.400;11.770;2023-01-30T15:16:32;96525.00;;;8.40
14851;BMP180;7517;48.400;11.770;2023-01-30T15:19:24;96528.00;;;8.40
14851;BMP180;7517;48.400;11.770;2023-01-30T15:22:11;96536.00;;;8.30
14851;BMP180;7517;48.400;11.770;2023-01-30T15:25:22;96531.00;;;8.30